Time;durP1;ratioP1;P1;durP2;ratioP2;P2;SDS_P1;SDS_P2;PMS_P1;PMS_P2;Temp;Humidity;BMP_temperature;BMP_pressure;BME280_temperature;BME280_humidity;BME280_pressure;Samples;Min_cycle;Max_cycle;Signal;HPM_P1;HPM_P2
2021/09/09 00:01:09;;;;;;;15.03;12.60;;;21.90;58.70;;;;;;5116828;28;20435;-74
2021/09/09 00:03:35;;;;;;;13.47;12.27;;;21.90;58.80;;;;;;5116887;28;20446;-74
2021/09/09 00:06:02;;;;;;;13.93;12.63;;;21.90;58.90;;;;;;5116735;28;20466;-74
2021/09/09 00:08:29;;;;;;;14.07;12.07;;;21.90;59.00;;;;;;5116670;28;20465;-74
2021/09/09 00:10:57;;;;;;;22.90;15.10;;;21.80;59.10;;;;;;5116685;28;20442;-74
2021/09/09 00:13:24;;;;;;;15.03;13.40;;;21.80;59.30;;;;;;5116417;28;20877;-74
2021/09/09 00:15:51;;;;;;;14.10;12.60;;;21.80;59.30;;;;;;5116276;28;20941;-74
2021/09/09 00:18:17;;;;;;;15.87;12.70;;;21.70;59.20;;;;;;5116427;28;20483;-74
2021/09/09 00:20:44;;;;;;;13.83;12.43;;;21.70;59.40;;;;;;5116523;28;20434;-74
2021/09/09 00:23:11;;;;;;;14.23;12.77;;;21.70;59.40;;;;;;5116433;28;20447;-74
2021/09/09 00:25:38;;;;;;;14.57;12.97;;;21.70;59.60;;;;;;5116113;28;21007;-74
2021/09/09 00:28:06;;;;;;;14.83;12.90;;;21.60;59.60;;;;;;5116268;28;20455;-74
2021/09/09 00:30:33;;;;;;;13.83;12.53;;;21.60;59.70;;;;;;5116284;28;20454;-74
2021/09/09 00:33:00;;;;;;;14.90;12.47;;;21.60;59.80;;;;;;5116308;28;20434;-74
2021/09/09 00:35:26;;;;;;;13.57;12.33;;;21.60;60.00;;;;;;5115885;28;20962;-74
2021/09/09 00:37:53;;;;;;;12.57;11.47;;;21.50;60.00;;;;;;5115669;28;20482;-74
2021/09/09 00:40:20;;;;;;;13.47;12.17;;;21.50;60.20;;;;;;5116105;28;20472;-74
2021/09/09 00:42:46;;;;;;;14.20;12.40;;;21.50;60.50;;;;;;5115723;28;20965;-74
2021/09/09 00:45:14;;;;;;;16.40;12.60;;;21.40;60.50;;;;;;5116055;28;20430;-74
2021/09/09 00:47:42;;;;;;;14.73;12.90;;;21.50;60.80;;;;;;5115883;28;20466;-74
2021/09/09 00:50:10;;;;;;;15.43;13.93;;;21.40;60.90;;;;;;5115906;28;20548;-74
2021/09/09 00:52:36;;;;;;;14.10;12.77;;;21.40;61.10;;;;;;5115870;28;20443;-74
2021/09/09 00:55:03;;;;;;;13.63;12.27;;;21.30;61.10;;;;;;5115550;28;20943;-74
2021/09/09 00:57:31;;;;;;;13.07;11.87;;;21.40;61.40;;;;;;5115669;28;20490;-74
2021/09/09 00:59:58;;;;;;;13.03;11.73;;;21.30;61.30;;;;;;5114929;28;20439;-74
2021/09/09 01:02:26;;;;;;;12.53;11.43;;;21.30;61.50;;;;;;5115473;28;20450;-74
2021/09/09 01:04:53;;;;;;;14.97;13.57;;;21.30;61.70;;;;;;5115657;28;20449;-74
2021/09/09 01:07:20;;;;;;;14.13;12.80;;;21.30;61.90;;;;;;5115496;28;20446;-74
2021/09/09 01:09:47;;;;;;;13.10;11.90;;;21.30;62.00;;;;;;5115587;28;20450;-75
2021/09/09 01:12:13;;;;;;;13.33;11.93;;;21.30;62.00;;;;;;5115358;28;20438;-75
2021/09/09 01:14:40;;;;;;;13.10;11.80;;;21.30;62.00;;;;;;5115079;28;20458;-75
2021/09/09 01:17:07;;;;;;;13.60;12.20;;;21.30;62.00;;;;;;5115313;28;20439;-74
2021/09/09 01:19:35;;;;;;;13.27;12.00;;;21.30;62.10;;;;;;5115221;28;20470;-74
2021/09/09 01:22:04;;;;;;;13.90;12.60;;;21.30;62.00;;;;;;5115254;28;20450;-74
2021/09/09 01:24:32;;;;;;;13.23;11.30;;;21.30;61.80;;;;;;5115248;28;20784;-74
2021/09/09 01:27:01;;;;;;;13.77;12.33;;;21.40;61.70;;;;;;5115227;28;20439;-74
2021/09/09 01:29:31;;;;;;;14.27;12.67;;;21.40;61.80;;;;;;5115050;28;20463;-74
2021/09/09 01:31:59;;;;;;;14.93;13.47;;;21.40;61.60;;;;;;5115080;28;20450;-74
2021/09/09 01:34:26;;;;;;;14.60;12.83;;;21.40;61.60;;;;;;5115049;28;20446;-74
2021/09/09 01:36:54;;;;;;;15.50;12.90;;;21.40;61.40;;;;;;5114983;28;20450;-74
2021/09/09 01:39:21;;;;;;;14.27;12.97;;;21.40;61.20;;;;;;5114794;28;20485;-74
2021/09/09 01:41:52;;;;;;;13.07;11.87;;;21.40;61.20;;;;;;5114889;28;20449;-74
2021/09/09 01:44:18;;;;;;;13.40;12.20;;;21.40;61.30;;;;;;5115715;28;20427;-74
2021/09/09 01:46:45;;;;;;;13.47;12.17;;;21.40;61.30;;;;;;5114824;28;20439;-74
2021/09/09 01:49:13;;;;;;;21.87;12.03;;;21.40;61.30;;;;;;5114709;28;20458;-74
2021/09/09 01:51:40;;;;;;;12.70;11.40;;;21.40;61.50;;;;;;5114694;28;20442;-74
2021/09/09 01:54:07;;;;;;;12.83;11.57;;;21.30;61.40;;;;;;5114644;28;20443;-74
2021/09/09 01:56:34;;;;;;;12.23;11.03;;;21.30;61.40;;;;;;5114648;27;20446;-74
2021/09/09 01:59:02;;;;;;;12.43;11.33;;;21.30;61.70;;;;;;5114455;28;20490;-74
2021/09/09 02:01:29;;;;;;;13.60;12.20;;;21.30;61.50;;;;;;5115176;28;20462;-74
2021/09/09 02:03:56;;;;;;;14.20;11.80;;;21.30;61.40;;;;;;5114506;28;20447;-74
2021/09/09 02:06:22;;;;;;;12.97;11.67;;;21.30;61.50;;;;;;5114447;28;20443;-74
2021/09/09 02:08:49;;;;;;;13.10;11.70;;;21.30;61.50;;;;;;5114305;28;20462;-74
2021/09/09 02:11:16;;;;;;;12.30;11.20;;;21.30;61.40;;;;;;5114188;28;20424;-74
2021/09/09 02:13:43;;;;;;;12.53;10.97;;;21.30;61.50;;;;;;5114054;28;20463;-74
2021/09/09 02:16:11;;;;;;;13.57;12.17;;;21.30;61.40;;;;;;5114273;28;20443;-74
2021/09/09 02:18:38;;;;;;;13.97;11.73;;;21.30;61.30;;;;;;5113752;28;20474;-74
2021/09/09 02:21:05;;;;;;;13.30;11.97;;;21.30;61.40;;;;;;5114185;28;20445;-74
2021/09/09 02:23:32;;;;;;;13.37;12.00;;;21.30;61.40;;;;;;5113874;28;20442;-74
2021/09/09 02:25:58;;;;;;;13.00;11.40;;;21.30;61.30;;;;;;5114141;28;20449;-74
2021/09/09 02:28:25;;;;;;;15.63;12.27;;;21.30;61.40;;;;;;5114041;28;20465;-74
2021/09/09 02:30:52;;;;;;;12.43;11.23;;;21.30;61.50;;;;;;5114099;28;20439;-74
2021/09/09 02:33:20;;;;;;;12.40;10.97;;;21.30;61.60;;;;;;5114013;28;20447;-74
2021/09/09 02:35:47;;;;;;;13.20;11.90;;;21.30;61.50;;;;;;5114010;28;20466;-74
2021/09/09 02:38:13;;;;;;;12.13;11.00;;;21.30;61.60;;;;;;5113792;28;20482;-74
2021/09/09 02:40:40;;;;;;;13.37;12.03;;;21.30;61.70;;;;;;5113997;28;20443;-74
2021/09/09 02:43:07;;;;;;;13.93;12.60;;;21.20;61.80;;;;;;5113595;28;20812;-74
2021/09/09 02:45:34;;;;;;;12.83;11.37;;;21.20;62.00;;;;;;5113900;28;20426;-74
2021/09/09 02:48:02;;;;;;;15.37;11.87;;;21.20;61.90;;;;;;5113801;28;20463;-74
2021/09/09 02:50:31;;;;;;;12.00;10.77;;;21.20;61.90;;;;;;5113844;28;20808;-74
2021/09/09 02:52:57;;;;;;;13.40;12.03;;;21.20;62.10;;;;;;5113798;28;20443;-74
2021/09/09 02:55:24;;;;;;;12.83;11.63;;;21.10;62.10;;;;;;5113765;28;20470;-74
2021/09/09 02:57:51;;;;;;;12.50;11.30;;;21.10;62.10;;;;;;5113689;28;20467;-74
2021/09/09 03:00:19;;;;;;;13.33;11.57;;;21.10;62.30;;;;;;5113784;28;20486;-74
2021/09/09 03:02:45;;;;;;;13.97;12.60;;;21.10;62.40;;;;;;5113704;28;20454;-74
2021/09/09 03:05:12;;;;;;;13.07;11.77;;;21.10;62.50;;;;;;5113676;28;20446;-74
2021/09/09 03:07:41;;;;;;;15.23;12.20;;;21.10;62.70;;;;;;5113592;28;20462;-74
2021/09/09 03:10:08;;;;;;;13.37;12.00;;;21.00;62.70;;;;;;5113715;28;20447;-74
2021/09/09 03:12:35;;;;;;;13.13;11.77;;;21.00;63.00;;;;;;5113600;28;20470;-74
2021/09/09 03:15:03;;;;;;;14.00;12.60;;;21.00;63.20;;;;;;5113597;28;20435;-74
2021/09/09 03:17:30;;;;;;;13.93;12.63;;;20.90;63.10;;;;;;5113595;28;20459;-74
2021/09/09 03:19:57;;;;;;;12.80;11.50;;;20.90;63.40;;;;;;5113149;28;21001;-74
2021/09/09 03:22:23;;;;;;;12.00;10.80;;;20.90;63.40;;;;;;5113525;28;20450;-74
2021/09/09 03:24:51;;;;;;;13.17;11.77;;;20.80;63.40;;;;;;5116048;28;20445;-74
2021/09/09 03:27:18;;;;;;;13.47;12.17;;;20.80;63.50;;;;;;5117145;28;20934;-74
2021/09/09 03:29:45;;;;;;;13.60;12.20;;;20.80;63.70;;;;;;5117462;28;20434;-74
2021/09/09 03:32:12;;;;;;;14.27;12.87;;;20.70;63.70;;;;;;5117198;28;20438;-74
2021/09/09 03:34:38;;;;;;;13.73;11.97;;;20.70;63.80;;;;;;5117368;28;20542;-74
2021/09/09 03:37:05;;;;;;;14.33;12.90;;;20.70;64.00;;;;;;5117350;28;20449;-74
2021/09/09 03:39:32;;;;;;;14.70;12.60;;;20.60;64.10;;;;;;5116850;28;21028;-74
2021/09/09 03:42:00;;;;;;;13.27;12.10;;;20.60;64.20;;;;;;5117250;28;20447;-74
2021/09/09 03:44:26;;;;;;;15.27;13.00;;;20.60;64.40;;;;;;5117198;28;20438;-74
2021/09/09 03:46:53;;;;;;;13.33;12.13;;;20.50;64.60;;;;;;5116874;28;20443;-74
2021/09/09 03:49:20;;;;;;;15.20;13.60;;;20.50;64.80;;;;;;5117058;28;20463;-74
2021/09/09 03:51:46;;;;;;;14.80;12.80;;;20.50;64.90;;;;;;5117088;28;20496;-74
2021/09/09 03:54:13;;;;;;;13.80;12.40;;;20.40;65.00;;;;;;5116749;28;20933;-74
2021/09/09 03:56:40;;;;;;;14.40;12.90;;;20.40;65.10;;;;;;5116992;28;20450;-74
2021/09/09 03:59:08;;;;;;;13.23;11.87;;;20.30;65.00;;;;;;5116807;28;20524;-74
2021/09/09 04:01:34;;;;;;;12.10;10.90;;;20.20;64.70;;;;;;5116892;28;20443;-74
2021/09/09 04:04:01;;;;;;;13.30;11.90;;;20.10;64.20;;;;;;5116847;28;20443;-74
2021/09/09 04:06:28;;;;;;;16.03;12.27;;;20.00;64.10;;;;;;5116459;28;20954;-74
2021/09/09 04:08:55;;;;;;;15.00;12.60;;;20.00;64.10;;;;;;5116681;28;20458;-74
2021/09/09 04:11:21;;;;;;;14.43;11.80;;;20.00;64.20;;;;;;5116668;28;20446;-74
2021/09/09 04:13:48;;;;;;;13.57;12.27;;;19.90;64.30;;;;;;5116254;28;20977;-74
2021/09/09 04:16:16;;;;;;;14.97;13.57;;;19.90;64.60;;;;;;5116554;28;20462;-74
2021/09/09 04:18:43;;;;;;;12.87;11.63;;;19.80;64.90;;;;;;5116468;28;20481;-74
2021/09/09 04:21:09;;;;;;;14.00;12.57;;;19.80;65.00;;;;;;5116503;28;20443;-74
2021/09/09 04:23:36;;;;;;;12.50;11.40;;;19.80;65.30;;;;;;5116425;28;20447;-74
2021/09/09 04:26:03;;;;;;;13.13;11.83;;;19.70;65.50;;;;;;5116397;28;20461;-74
2021/09/09 04:28:30;;;;;;;14.40;12.90;;;19.70;65.60;;;;;;5116001;28;20458;-74
2021/09/09 04:30:57;;;;;;;12.80;11.50;;;19.50;65.70;;;;;;5116325;28;20446;-74
2021/09/09 04:33:25;;;;;;;13.30;12.00;;;19.50;65.80;;;;;;5116282;28;20434;-74
2021/09/09 04:35:52;;;;;;;14.40;12.83;;;19.40;66.00;;;;;;5116162;28;20443;-74
2021/09/09 04:38:18;;;;;;;14.93;13.33;;;19.40;66.30;;;;;;5116142;28;20470;-74
2021/09/09 04:40:45;;;;;;;13.97;12.57;;;19.40;66.40;;;;;;5116165;28;20439;-74
2021/09/09 04:43:12;;;;;;;14.50;12.97;;;19.40;66.70;;;;;;5116147;28;20442;-74
2021/09/09 04:45:38;;;;;;;15.23;13.70;;;19.40;67.10;;;;;;5116012;28;20435;-74
2021/09/09 04:48:06;;;;;;;15.40;14.00;;;19.40;67.50;;;;;;5115933;28;20470;-74
2021/09/09 04:50:34;;;;;;;16.47;14.87;;;19.40;68.00;;;;;;5115894;28;20431;-74
2021/09/09 04:53:00;;;;;;;16.53;14.80;;;19.40;68.40;;;;;;5115875;28;20434;-75
2021/09/09 04:55:27;;;;;;;17.63;15.83;;;19.40;68.70;;;;;;5115885;28;20443;-74
2021/09/09 04:57:54;;;;;;;17.80;16.00;;;19.40;69.00;;;;;;5115793;28;20459;-74
2021/09/09 05:00:21;;;;;;;17.67;15.77;;;19.40;69.10;;;;;;5115461;28;20970;-75
2021/09/09 05:02:47;;;;;;;16.47;14.73;;;19.40;69.30;;;;;;5115725;28;20439;-75
2021/09/09 05:05:14;;;;;;;21.07;16.00;;;19.40;69.50;;;;;;5115656;28;20445;-75
2021/09/09 05:07:42;;;;;;;19.97;17.40;;;19.50;69.80;;;;;;5115449;28;20471;-75
2021/09/09 05:10:10;;;;;;;17.97;16.07;;;19.50;69.80;;;;;;5115211;28;20420;-74
2021/09/09 05:12:36;;;;;;;27.50;15.93;;;19.60;70.00;;;;;;5115475;28;20449;-74
2021/09/09 05:15:04;;;;;;;18.63;16.70;;;19.60;70.00;;;;;;5115578;28;20802;-75
2021/09/09 05:17:31;;;;;;;19.20;16.23;;;19.50;69.70;;;;;;5115548;28;20512;-75
2021/09/09 05:19:58;;;;;;;20.77;17.10;;;19.60;70.00;;;;;;5115335;28;20602;-74
2021/09/09 05:22:24;;;;;;;18.50;16.70;;;19.60;70.00;;;;;;5115406;28;20468;-75
2021/09/09 05:24:52;;;;;;;19.90;16.73;;;19.60;69.90;;;;;;5115017;28;20434;-74
2021/09/09 05:27:19;;;;;;;17.40;15.70;;;19.70;70.10;;;;;;5115757;28;20443;-74
2021/09/09 05:29:46;;;;;;;18.77;16.80;;;19.70;70.10;;;;;;5115259;28;20439;-75
2021/09/09 05:32:12;;;;;;;18.83;16.83;;;19.70;70.10;;;;;;5115017;28;20983;-74
2021/09/09 05:34:39;;;;;;;22.80;16.20;;;19.70;70.10;;;;;;5116122;28;20447;-74
2021/09/09 05:37:06;;;;;;;18.93;16.80;;;19.70;70.00;;;;;;5115102;28;20447;-74
2021/09/09 05:39:33;;;;;;;21.07;15.60;;;19.80;70.20;;;;;;5114882;28;20497;-74
2021/09/09 05:42:01;;;;;;;20.63;15.70;;;19.80;70.10;;;;;;5114678;28;20443;-74
2021/09/09 05:44:27;;;;;;;18.00;15.73;;;19.80;70.10;;;;;;5114584;28;20934;-74
2021/09/09 05:46:54;;;;;;;19.17;15.97;;;19.80;70.20;;;;;;5114373;28;20458;-75
2021/09/09 05:49:21;;;;;;;16.60;14.00;;;19.80;69.90;;;;;;5114841;28;20470;-74
2021/09/09 05:51:48;;;;;;;17.20;14.33;;;19.80;69.80;;;;;;5114538;28;20439;-74
2021/09/09 05:54:15;;;;;;;15.73;14.03;;;19.80;69.90;;;;;;5114560;28;20938;-74
2021/09/09 05:56:41;;;;;;;16.27;14.57;;;19.80;69.50;;;;;;5114736;28;20447;-74
2021/09/09 05:59:10;;;;;;;17.47;14.90;;;19.90;69.60;;;;;;5114464;28;20528;-74
2021/09/09 06:01:37;;;;;;;20.40;14.77;;;19.90;70.60;;;;;;5114701;28;20930;-74
2021/09/09 06:04:04;;;;;;;22.20;15.47;;;20.00;69.90;;;;;;5114226;28;20451;-74
2021/09/09 06:06:31;;;;;;;23.87;14.63;;;20.00;69.70;;;;;;5114539;28;20427;-74
2021/09/09 06:08:57;;;;;;;18.70;14.33;;;20.10;70.00;;;;;;5114064;28;20973;-74
2021/09/09 06:11:24;;;;;;;16.73;14.83;;;20.10;69.90;;;;;;5114458;28;20435;-74
2021/09/09 06:13:51;;;;;;;17.30;15.23;;;20.20;70.10;;;;;;5114076;28;20961;-74
2021/09/09 06:16:19;;;;;;;25.73;15.37;;;20.20;70.10;;;;;;5114353;28;20450;-74
2021/09/09 06:18:46;;;;;;;15.23;13.60;;;20.30;69.60;;;;;;5114223;28;20459;-75
2021/09/09 06:21:12;;;;;;;16.43;14.87;;;20.30;69.10;;;;;;5114173;28;20485;-74
2021/09/09 06:23:39;;;;;;;19.47;15.30;;;20.40;69.10;;;;;;5114161;28;20443;-75
2021/09/09 06:26:06;;;;;;;17.47;15.70;;;20.40;69.10;;;;;;5114131;28;20810;-74
2021/09/09 06:28:32;;;;;;;17.30;14.23;;;20.50;68.90;;;;;;5113766;28;20981;-75
2021/09/09 06:30:59;;;;;;;17.57;12.57;;;20.60;69.20;;;;;;5114142;28;20443;-74
2021/09/09 06:33:27;;;;;;;15.97;14.27;;;20.60;69.70;;;;;;5114077;28;20457;-74
2021/09/09 06:35:54;;;;;;;13.83;12.43;;;20.70;69.30;;;;;;5114157;28;20450;-74
2021/09/09 06:38:21;;;;;;;16.63;14.63;;;20.70;69.30;;;;;;5113987;28;20470;-75
2021/09/09 06:40:47;;;;;;;15.57;14.00;;;20.80;69.00;;;;;;5113926;28;20478;-75
2021/09/09 06:43:14;;;;;;;15.53;13.90;;;20.90;68.80;;;;;;5114006;28;20450;-74
2021/09/09 06:45:41;;;;;;;14.73;13.23;;;21.00;68.80;;;;;;5113974;28;20798;-74
2021/09/09 06:48:08;;;;;;;15.20;13.60;;;21.00;69.60;;;;;;5113812;28;20463;-75
2021/09/09 06:50:36;;;;;;;15.13;13.30;;;21.00;69.20;;;;;;5114137;28;20439;-75
2021/09/09 06:53:03;;;;;;;15.10;12.33;;;21.10;69.00;;;;;;5114112;28;20447;-75
2021/09/09 06:55:29;;;;;;;13.23;11.83;;;21.20;68.90;;;;;;5114397;28;20454;-75
2021/09/09 06:57:57;;;;;;;16.70;13.60;;;21.30;68.20;;;;;;5113837;28;20459;-74
2021/09/09 07:00:23;;;;;;;15.67;14.00;;;21.40;68.10;;;;;;5117847;28;20501;-74
2021/09/09 07:02:50;;;;;;;16.10;14.50;;;21.50;68.10;;;;;;5118135;28;20470;-75
2021/09/09 07:05:17;;;;;;;15.37;13.87;;;21.50;66.70;;;;;;5118013;28;20846;-75
2021/09/09 07:07:45;;;;;;;14.50;13.00;;;21.60;65.80;;;;;;5117610;28;20462;-75
2021/09/09 07:10:12;;;;;;;15.43;13.20;;;21.70;65.30;;;;;;5117964;28;20447;-75
2021/09/09 07:12:39;;;;;;;12.80;11.50;;;21.80;64.90;;;;;;5117609;28;20909;-74
2021/09/09 07:15:06;;;;;;;14.10;12.30;;;21.90;64.80;;;;;;5117836;28;20434;-75
2021/09/09 07:17:33;;;;;;;19.47;14.37;;;22.00;64.00;;;;;;5117690;28;20471;-74
2021/09/09 07:20:00;;;;;;;16.20;13.20;;;22.20;63.30;;;;;;5117681;28;20486;-75
2021/09/09 07:22:27;;;;;;;21.37;14.90;;;22.30;62.90;;;;;;5117692;28;20451;-75
2021/09/09 07:24:55;;;;;;;15.80;13.47;;;22.40;61.70;;;;;;5117346;28;20446;-75
2021/09/09 07:27:21;;;;;;;12.47;11.30;;;22.40;61.20;;;;;;5117453;28;20447;-74
2021/09/09 07:29:48;;;;;;;17.57;15.20;;;22.60;61.00;;;;;;5117572;28;20423;-74
2021/09/09 07:32:15;;;;;;;19.40;14.90;;;22.70;61.30;;;;;;5117238;28;20433;-75
2021/09/09 07:34:42;;;;;;;16.40;14.70;;;22.80;60.70;;;;;;5117496;28;20427;-75
2021/09/09 07:37:08;;;;;;;18.37;15.10;;;22.90;60.10;;;;;;5117604;28;20426;-75
2021/09/09 07:39:35;;;;;;;19.33;13.97;;;23.10;59.80;;;;;;5117506;28;20905;-75
2021/09/09 07:42:03;;;;;;;18.50;15.60;;;23.20;59.90;;;;;;5117512;28;20849;-75
2021/09/09 07:44:30;;;;;;;15.70;13.47;;;23.30;59.50;;;;;;5117634;28;20422;-75
2021/09/09 07:46:57;;;;;;;16.53;13.77;;;23.40;59.00;;;;;;5117527;28;20446;-75
2021/09/09 07:49:23;;;;;;;13.03;11.67;;;23.50;58.90;;;;;;5117581;28;20527;-75
2021/09/09 07:51:50;;;;;;;14.57;13.07;;;23.70;59.00;;;;;;5117355;28;20443;-75
2021/09/09 07:54:17;;;;;;;12.40;11.10;;;23.90;58.30;;;;;;5116978;28;20980;-75
2021/09/09 07:56:44;;;;;;;11.80;10.60;;;24.00;57.60;;;;;;5117110;28;20439;-75
2021/09/09 07:59:12;;;;;;;12.80;11.50;;;24.10;57.20;;;;;;5117110;28;20561;-74
2021/09/09 08:01:39;;;;;;;16.27;11.60;;;24.30;57.00;;;;;;5116983;28;20489;-75
2021/09/09 08:04:05;;;;;;;17.53;11.03;;;24.50;56.40;;;;;;5116825;28;20450;-74
2021/09/09 08:06:32;;;;;;;13.83;12.43;;;24.70;55.30;;;;;;5116857;28;20450;-74
2021/09/09 08:08:59;;;;;;;12.83;10.87;;;24.80;54.50;;;;;;5116565;28;20469;-75
2021/09/09 08:11:25;;;;;;;12.50;11.20;;;24.90;54.30;;;;;;5116287;28;20468;-75
2021/09/09 08:13:52;;;;;;;12.17;10.83;;;25.10;54.10;;;;;;5116326;28;20450;-75
2021/09/09 08:16:21;;;;;;;12.17;10.03;;;25.20;53.90;;;;;;5116668;28;20478;-75
2021/09/09 08:18:47;;;;;;;12.27;9.90;;;25.40;53.90;;;;;;5116591;28;20548;-75
2021/09/09 08:21:15;;;;;;;12.60;11.40;;;25.60;53.80;;;;;;5116515;28;20459;-74
2021/09/09 08:23:42;;;;;;;11.90;10.73;;;25.70;53.40;;;;;;5116519;28;20475;-74
2021/09/09 08:26:12;;;;;;;13.20;11.83;;;25.90;53.10;;;;;;5122074;28;20439;-74
2021/09/09 08:28:45;;;;;;;11.70;10.47;;;26.00;52.50;;;;;;5128658;28;20497;-74
2021/09/09 08:31:12;;;;;;;16.40;11.07;;;26.10;52.20;;;;;;5119318;28;20496;-74
2021/09/09 08:33:42;;;;;;;12.10;10.80;;;26.10;51.80;;;;;;5116309;28;20448;-74
2021/09/09 08:36:11;;;;;;;14.73;10.20;;;26.20;51.60;;;;;;5116288;28;20457;-74
2021/09/09 08:38:38;;;;;;;11.57;10.47;;;26.30;51.30;;;;;;5116100;28;20466;-74
2021/09/09 08:41:05;;;;;;;10.90;9.73;;;26.40;51.50;;;;;;5115797;28;21018;-74
2021/09/09 08:43:33;;;;;;;11.60;10.60;;;26.60;51.10;;;;;;5116105;28;20439;-74
2021/09/09 08:46:02;;;;;;;12.87;10.37;;;26.70;50.70;;;;;;5116082;28;20821;-74
2021/09/09 08:48:29;;;;;;;12.10;9.87;;;26.90;50.20;;;;;;5115831;28;20473;-74
2021/09/09 08:50:58;;;;;;;12.80;10.47;;;27.00;49.50;;;;;;5116096;28;20442;-74
2021/09/09 08:53:26;;;;;;;13.10;10.27;;;27.30;49.30;;;;;;5115918;28;20446;-74
2021/09/09 08:55:53;;;;;;;10.60;9.60;;;27.50;49.10;;;;;;5116002;28;20783;-74
2021/09/09 08:58:20;;;;;;;13.50;9.20;;;27.80;48.40;;;;;;5115763;28;20466;-74
2021/09/09 09:01:10;;;;;;;15.80;9.80;;;28.10;47.50;;;;;;5115723;28;20485;-74
2021/09/09 09:03:44;;;;;;;12.13;9.10;;;28.30;48.10;;;;;;5115445;28;20898;-74
2021/09/09 09:06:36;;;;;;;11.83;9.00;;;28.40;47.10;;;;;;5115776;28;20466;-74
2021/09/09 09:09:08;;;;;;;9.17;8.10;;;28.50;46.80;;;;;;5115574;28;20463;-74
2021/09/09 09:11:36;;;;;;;13.67;8.97;;;28.50;47.40;;;;;;5115380;28;20941;-74
2021/09/09 09:14:03;;;;;;;10.10;8.77;;;28.50;47.30;;;;;;5115386;28;20466;-74
2021/09/09 09:16:31;;;;;;;11.17;9.47;;;28.50;47.90;;;;;;5115522;28;20474;-74
2021/09/09 09:18:59;;;;;;;9.47;8.60;;;28.60;47.80;;;;;;5115347;28;20463;-74
2021/09/09 09:21:27;;;;;;;14.97;8.93;;;28.60;47.70;;;;;;5114448;28;20478;-74
2021/09/09 09:23:57;;;;;;;18.87;9.60;;;28.70;47.00;;;;;;5115386;28;20439;-74
2021/09/09 09:26:24;;;;;;;13.77;8.63;;;28.80;47.40;;;;;;5115375;28;20442;-74
2021/09/09 09:28:53;;;;;;;9.27;8.37;;;28.90;47.10;;;;;;5115191;28;20463;-74
2021/09/09 09:31:22;;;;;;;11.87;8.23;;;29.10;47.40;;;;;;5115176;28;20439;-74
2021/09/09 09:33:54;;;;;;;11.00;8.30;;;29.10;47.60;;;;;;5115152;28;20452;-74
2021/09/09 09:36:24;;;;;;;14.93;9.03;;;29.20;47.90;;;;;;5115147;28;20480;-74
2021/09/09 09:38:53;;;;;;;13.07;8.60;;;29.30;47.40;;;;;;5115021;28;20459;-74
2021/09/09 09:41:23;;;;;;;15.10;8.83;;;29.40;47.70;;;;;;5114954;28;20476;-74
2021/09/09 09:43:54;;;;;;;12.23;9.23;;;29.50;47.20;;;;;;5114825;28;20431;-74
2021/09/09 09:46:36;;;;;;;9.73;8.30;;;29.60;47.70;;;;;;5115138;28;20435;-74
2021/09/09 09:49:28;;;;;;;10.03;8.40;;;29.80;47.80;;;;;;5114910;28;20467;-74
2021/09/09 09:51:57;;;;;;;13.03;8.40;;;30.10;46.30;;;;;;5095178;28;20455;-74
2021/09/09 09:54:25;;;;;;;13.63;10.60;;;30.50;45.20;;;;;;5114498;28;20450;-74
2021/09/09 09:56:55;;;;;;;13.80;10.50;;;30.70;45.50;;;;;;5114827;28;20843;-74
2021/09/09 09:59:22;;;;;;;11.87;10.67;;;30.50;45.90;;;;;;5114477;28;20459;-74
2021/09/09 10:01:49;;;;;;;9.50;8.60;;;30.30;45.80;;;;;;5114626;28;20903;-74
2021/09/09 10:04:18;;;;;;;12.73;10.40;;;30.30;47.40;;;;;;5114627;28;20438;-74
2021/09/09 10:06:53;;;;;;;12.17;10.87;;;30.30;47.20;;;;;;5118370;28;20443;-74
2021/09/09 10:09:24;;;;;;;13.67;11.87;;;30.40;46.20;;;;;;5116285;28;20454;-74
2021/09/09 10:11:52;;;;;;;13.37;12.00;;;30.50;46.70;;;;;;5120297;28;20525;-74
2021/09/09 10:14:27;;;;;;;14.13;9.07;;;30.70;45.30;;;;;;5118914;28;20462;-74
2021/09/09 10:16:58;;;;;;;12.03;9.60;;;31.00;44.70;;;;;;5124224;28;20431;-74
2021/09/09 10:19:31;;;;;;;11.63;8.77;;;31.50;44.20;;;;;;5122860;27;20463;-74
2021/09/09 10:22:10;;;;;;;13.97;12.47;;;32.00;43.00;;;;;;5119959;28;20497;-74
2021/09/09 10:24:38;;;;;;;18.00;11.37;;;31.90;42.50;;;;;;5114337;28;20480;-74
2021/09/09 10:27:23;;;;;;;15.20;12.30;;;31.90;44.50;;;;;;5114278;28;20419;-74
2021/09/09 10:29:53;;;;;;;17.73;12.60;;;31.80;43.20;;;;;;5114233;28;20451;-74
2021/09/09 10:32:54;;;;;;;15.03;12.97;;;31.70;43.60;;;;;;5113724;28;20913;-74
2021/09/09 10:35:29;;;;;;;14.37;13.10;;;31.50;43.90;;;;;;5114070;28;20500;-74
2021/09/09 10:37:58;;;;;;;16.77;11.40;;;31.70;45.30;;;;;;5113958;28;20470;-75
2021/09/09 10:40:32;;;;;;;12.63;9.90;;;31.90;43.90;;;;;;5113957;28;20456;-74
2021/09/09 10:43:01;;;;;;;12.60;9.97;;;32.50;45.10;;;;;;5113973;28;20419;-74
2021/09/09 10:45:42;;;;;;;13.50;10.03;;;33.00;42.80;;;;;;5113598;28;20938;-74
2021/09/09 10:48:10;;;;;;;10.03;8.90;;;33.20;41.40;;;;;;5113485;28;20987;-74
2021/09/09 10:50:38;;;;;;;10.90;9.47;;;33.40;41.50;;;;;;5113902;28;20454;-74
2021/09/09 10:53:07;;;;;;;12.03;10.10;;;33.70;41.20;;;;;;5113735;28;20482;-74
2021/09/09 10:55:36;;;;;;;11.27;9.87;;;33.90;40.90;;;;;;5113862;28;20450;-74
2021/09/09 10:58:28;;;;;;;14.60;9.73;;;33.90;40.20;;;;;;5113741;28;20850;-74
2021/09/09 11:00:57;;;;;;;23.67;11.27;;;34.40;39.80;;;;;;5113741;28;20523;-74
2021/09/09 11:03:37;;;;;;;54.90;16.20;;;34.70;38.30;;;;;;5113852;28;20513;-74
2021/09/09 11:06:06;;;;;;;36.80;14.50;;;35.00;38.80;;;;;;5113779;28;20437;-74
2021/09/09 11:08:33;;;;;;;33.03;12.23;;;35.10;37.40;;;;;;5113353;28;20977;-74
2021/09/09 11:11:00;;;;;;;46.97;14.10;;;35.10;38.10;;;;;;5113743;28;20438;-74
2021/09/09 11:13:28;;;;;;;17.93;9.43;;;35.10;38.20;;;;;;5113541;28;20461;-75
2021/09/09 11:15:56;;;;;;;17.63;9.47;;;35.30;37.10;;;;;;5113733;28;20442;-74
2021/09/09 11:18:28;;;;;;;23.57;9.70;;;35.10;37.00;;;;;;5113714;28;20470;-74
2021/09/09 11:21:02;;;;;;;23.27;10.77;;;35.00;37.60;;;;;;5114518;28;20477;-74
2021/09/09 11:23:29;;;;;;;59.80;14.37;;;35.40;37.50;;;;;;5113471;28;20457;-74
2021/09/09 11:25:55;;;;;;;27.23;10.47;;;35.30;37.30;;;;;;5113521;28;20438;-74
2021/09/09 11:28:22;;;;;;;12.87;8.23;;;35.40;36.90;;;;;;5112961;28;20472;-74
2021/09/09 11:31:11;;;;;;;31.07;10.60;;;35.10;37.40;;;;;;5113354;28;20434;-74
2021/09/09 11:33:48;;;;;;;23.30;8.37;;;35.40;38.60;;;;;;5113348;28;20461;-74
2021/09/09 11:36:16;;;;;;;28.07;11.30;;;35.10;38.40;;;;;;5113330;28;20448;-73
2021/09/09 11:38:43;;;;;;;29.33;11.00;;;34.40;38.70;;;;;;5113228;28;20545;-73
2021/09/09 11:41:11;;;;;;;58.47;12.33;;;33.60;40.80;;;;;;5112843;28;20473;-73
2021/09/09 11:43:39;;;;;;;60.13;12.73;;;33.00;42.00;;;;;;5114475;28;20507;-72
2021/09/09 11:46:07;;;;;;;34.57;10.10;;;32.40;42.20;;;;;;5116981;28;20491;-73
2021/09/09 11:48:34;;;;;;;53.97;9.87;;;31.80;42.30;;;;;;5118906;28;20500;-73
2021/09/09 11:51:01;;;;;;;13.83;5.70;;;31.40;42.90;;;;;;5116988;28;20443;-72
2021/09/09 11:53:28;;;;;;;6.73;5.50;;;30.90;44.00;;;;;;5116941;28;20439;-72
2021/09/09 11:55:55;;;;;;;9.90;5.33;;;30.70;45.70;;;;;;5116922;28;20734;-71
2021/09/09 11:58:33;;;;;;;7.53;5.30;;;30.60;46.90;;;;;;5116831;27;20471;-72
2021/09/09 12:01:02;;;;;;;8.43;5.03;;;30.50;46.60;;;;;;5116752;28;20807;-72
2021/09/09 12:03:31;;;;;;;7.00;5.70;;;30.50;47.50;;;;;;5116721;28;20466;-72
2021/09/09 12:05:58;;;;;;;6.73;4.53;;;30.50;47.70;;;;;;5117102;28;20423;-73
2021/09/09 12:08:26;;;;;;;6.00;5.40;;;30.40;47.90;;;;;;5116575;28;20470;-73
2021/09/09 12:11:05;;;;;;;10.87;5.10;;;30.50;47.60;;;;;;5116283;28;20443;-73
2021/09/09 12:13:33;;;;;;;8.50;5.27;;;30.60;47.40;;;;;;5116432;28;20450;-72
2021/09/09 12:16:14;;;;;;;6.17;4.40;;;30.70;47.50;;;;;;5116576;28;20449;-72
2021/09/09 12:18:42;;;;;;;7.90;3.93;;;30.80;45.30;;;;;;5116378;28;20972;-71
2021/09/09 12:21:10;;;;;;;4.60;3.00;;;30.80;45.50;;;;;;5116424;28;20459;-73
2021/09/09 12:24:29;;;;;;;5.37;3.70;;;30.80;46.60;;;;;;5116134;28;20910;-71
2021/09/09 12:27:31;;;;;;;4.20;3.70;;;30.80;44.40;;;;;;5116893;28;20450;-73
2021/09/09 12:30:04;;;;;;;3.90;3.50;;;30.90;45.10;;;;;;5113709;28;20929;-73
2021/09/09 12:32:31;;;;;;;46.70;7.33;;;31.40;44.70;;;;;;5116223;28;20423;-73
2021/09/09 12:35:15;;;;;;;17.13;4.57;;;31.70;43.40;;;;;;5116182;28;20434;-73
2021/09/09 12:37:42;;;;;;;7.50;4.73;;;32.40;42.10;;;;;;5113728;28;20479;-73